Time;durP1;ratioP1;P1;durP2;ratioP2;P2;SDS_P1;SDS_P2;PMS_P1;PMS_P2;Temp;Humidity;BMP_temperature;BMP_pressure;BME280_temperature;BME280_humidity;BME280_pressure;Samples;Min_cycle;Max_cycle;Signal;HPM_P1;HPM_P2
2023/05/07 00:01:08;;;;;;;7.22;4.93;;;15.20;99.90;;;;;;5020700;28;20427;-37
2023/05/07 00:03:34;;;;;;;8.93;7.22;;;15.20;99.90;;;;;;5032863;28;20057;-37
2023/05/07 00:06:00;;;;;;;10.15;7.15;;;15.20;99.90;;;;;;5021919;28;20057;-37
2023/05/07 00:08:25;;;;;;;10.07;7.10;;;15.20;99.90;;;;;;5029528;28;20474;-37
2023/05/07 00:10:51;;;;;;;8.32;6.30;;;15.20;99.90;;;;;;5031554;28;20061;-37
2023/05/07 00:13:16;;;;;;;9.68;7.22;;;15.20;99.90;;;;;;5030587;28;20044;-37
2023/05/07 00:15:42;;;;;;;6.22;4.90;;;15.10;99.90;;;;;;5024855;28;20057;-37
2023/05/07 00:18:08;;;;;;;9.18;6.13;;;15.20;99.90;;;;;;5017364;28;20515;-37
2023/05/07 00:20:33;;;;;;;8.45;6.32;;;15.20;99.90;;;;;;5033072;28;20116;-37
2023/05/07 00:22:59;;;;;;;10.30;7.50;;;15.20;99.90;;;;;;5031009;28;20057;-37
2023/05/07 00:25:24;;;;;;;11.30;7.22;;;15.20;99.90;;;;;;5033350;28;20052;-37
2023/05/07 00:27:50;;;;;;;8.32;6.55;;;15.20;99.90;;;;;;5032230;28;20049;-37
2023/05/07 00:30:16;;;;;;;9.73;6.78;;;15.20;99.90;;;;;;5022105;28;20115;-36
2023/05/07 00:32:41;;;;;;;8.45;5.85;;;15.10;99.90;;;;;;5013255;28;20057;-36
2023/05/07 00:35:07;;;;;;;8.52;5.97;;;15.10;99.90;;;;;;5008836;28;20696;-36
2023/05/07 00:37:33;;;;;;;6.68;5.47;;;15.10;99.90;;;;;;5011952;28;20053;-37
2023/05/07 00:39:59;;;;;;;7.68;5.57;;;15.10;99.90;;;;;;5011428;28;20053;-38
2023/05/07 00:42:24;;;;;;;7.60;5.85;;;15.10;99.90;;;;;;5009962;28;20064;-37
2023/05/07 00:44:50;;;;;;;9.30;6.50;;;15.10;99.90;;;;;;5014510;28;20084;-37
2023/05/07 00:47:17;;;;;;;8.13;6.38;;;15.10;99.90;;;;;;5035230;28;20064;-38
2023/05/07 00:49:44;;;;;;;6.15;5.05;;;15.00;99.90;;;;;;5040465;28;20511;-37
2023/05/07 00:52:14;;;;;;;9.48;7.38;;;15.00;99.90;;;;;;5025863;28;20060;-37
2023/05/07 00:54:41;;;;;;;11.60;7.00;;;15.00;99.90;;;;;;5039346;28;20069;-38
2023/05/07 00:57:08;;;;;;;9.65;7.47;;;15.00;99.90;;;;;;5029772;28;20053;-37
2023/05/07 00:59:34;;;;;;;9.75;7.63;;;14.90;99.90;;;;;;5038852;28;20045;-37
2023/05/07 01:02:00;;;;;;;11.40;8.07;;;14.90;99.90;;;;;;5043678;28;20045;-37
2023/05/07 01:04:26;;;;;;;10.70;8.60;;;14.90;99.90;;;;;;5032535;28;20049;-36
2023/05/07 01:06:55;;;;;;;10.57;8.77;;;14.90;99.90;;;;;;5039159;28;20071;-36
2023/05/07 01:09:22;;;;;;;9.70;7.45;;;14.80;99.90;;;;;;5024205;28;20546;-36
2023/05/07 01:11:50;;;;;;;10.32;6.75;;;14.80;99.90;;;;;;5034298;28;20054;-37
2023/05/07 01:14:16;;;;;;;11.65;8.27;;;14.80;99.90;;;;;;5038598;28;20090;-37
2023/05/07 01:16:42;;;;;;;11.73;9.63;;;14.80;99.90;;;;;;5020411;28;20049;-36
2023/05/07 01:19:10;;;;;;;12.63;8.77;;;14.80;99.90;;;;;;5012613;28;20048;-37
2023/05/07 01:21:38;;;;;;;10.38;8.10;;;14.80;99.90;;;;;;5043147;28;20503;-37
2023/05/07 01:24:05;;;;;;;10.88;8.65;;;14.80;99.90;;;;;;5018287;28;20054;-37
2023/05/07 01:26:31;;;;;;;10.40;8.55;;;14.70;99.90;;;;;;5033199;28;20049;-37
2023/05/07 01:28:56;;;;;;;14.05;10.95;;;14.70;99.90;;;;;;5026859;28;20056;-37
2023/05/07 01:31:24;;;;;;;13.15;11.18;;;14.60;99.90;;;;;;5031777;28;20056;-37
2023/05/07 01:33:51;;;;;;;11.32;8.40;;;14.60;99.90;;;;;;5019811;28;20509;-39
2023/05/07 01:36:19;;;;;;;10.93;8.77;;;14.60;99.90;;;;;;5034083;28;20051;-37
2023/05/07 01:38:45;;;;;;;13.30;9.20;;;14.60;99.90;;;;;;5028216;28;20041;-37
2023/05/07 01:41:12;;;;;;;13.20;10.38;;;14.60;99.90;;;;;;5040137;28;20043;-37
2023/05/07 01:43:41;;;;;;;12.52;9.38;;;14.60;99.90;;;;;;5041789;28;20060;-37
2023/05/07 01:46:09;;;;;;;11.18;8.35;;;14.50;99.90;;;;;;5022726;28;20050;-37
2023/05/07 01:48:35;;;;;;;14.80;10.73;;;14.50;99.90;;;;;;5021276;28;20407;-37
2023/05/07 01:51:02;;;;;;;13.38;9.35;;;14.50;99.90;;;;;;5027673;28;20044;-37
2023/05/07 01:53:28;;;;;;;13.13;8.80;;;14.40;99.90;;;;;;5022253;28;20570;-37
2023/05/07 01:55:54;;;;;;;14.70;10.38;;;14.50;99.90;;;;;;5031961;28;20557;-37
2023/05/07 01:58:19;;;;;;;11.75;8.65;;;14.40;99.90;;;;;;5029990;28;20045;-37
2023/05/07 02:00:45;;;;;;;14.77;9.45;;;14.50;99.90;;;;;;5029823;28;20300;-37
2023/05/07 02:03:11;;;;;;;11.93;8.63;;;14.40;99.90;;;;;;5022303;28;20057;-37
2023/05/07 02:05:36;;;;;;;12.85;8.77;;;14.40;99.90;;;;;;5010975;28;20068;-37
2023/05/07 02:08:02;;;;;;;16.08;8.88;;;14.40;99.90;;;;;;5009626;28;20058;-37
2023/05/07 02:10:28;;;;;;;11.65;8.45;;;14.30;99.90;;;;;;5011094;28;20482;-37
2023/05/07 02:12:53;;;;;;;12.45;8.07;;;14.30;99.90;;;;;;5009986;28;20416;-38
2023/05/07 02:15:19;;;;;;;13.18;9.30;;;14.30;99.90;;;;;;5012121;28;20141;-37
2023/05/07 02:18:02;;;;;;;9.52;7.50;;;14.30;99.90;;;;;;5015314;28;20507;-37
2023/05/07 02:20:28;;;;;;;12.40;8.82;;;14.30;99.90;;;;;;5030678;28;20649;-38
2023/05/07 02:22:54;;;;;;;12.68;8.35;;;14.20;99.90;;;;;;5040871;28;20050;-38
2023/05/07 02:25:19;;;;;;;11.00;7.85;;;14.20;99.90;;;;;;5036644;28;20541;-38
2023/05/07 02:27:45;;;;;;;11.07;7.40;;;14.20;99.90;;;;;;5025160;28;20091;-38
2023/05/07 02:30:11;;;;;;;11.38;7.63;;;14.10;99.90;;;;;;5038626;28;20057;-37
2023/05/07 02:32:37;;;;;;;12.77;8.10;;;14.10;99.90;;;;;;5026174;28;20057;-38
2023/05/07 02:35:03;;;;;;;10.32;6.82;;;14.10;99.90;;;;;;5037151;28;20750;-38
2023/05/07 02:37:28;;;;;;;12.82;8.35;;;14.00;99.90;;;;;;5036233;28;20049;-38
2023/05/07 02:39:54;;;;;;;12.40;8.73;;;14.10;99.90;;;;;;5011722;28;20057;-37
2023/05/07 02:42:19;;;;;;;15.55;8.90;;;14.00;99.90;;;;;;5011820;28;20496;-37
2023/05/07 02:44:45;;;;;;;13.32;8.60;;;14.00;99.90;;;;;;5013145;28;20050;-37
2023/05/07 02:47:12;;;;;;;10.73;7.50;;;13.90;99.90;;;;;;5011130;28;20046;-37
2023/05/07 02:49:38;;;;;;;12.13;8.30;;;13.90;99.90;;;;;;5015285;28;20088;-37
2023/05/07 02:52:04;;;;;;;10.13;7.30;;;13.90;99.90;;;;;;5014038;28;20125;-37
2023/05/07 02:54:30;;;;;;;11.00;7.63;;;13.90;99.90;;;;;;5028523;28;20061;-37
2023/05/07 02:56:56;;;;;;;12.73;7.80;;;13.90;99.90;;;;;;5019560;28;20046;-37
2023/05/07 02:59:21;;;;;;;13.13;9.80;;;13.90;99.90;;;;;;5035896;28;20045;-38
2023/05/07 03:01:48;;;;;;;12.50;9.07;;;13.80;99.90;;;;;;5017123;28;20645;-37
2023/05/07 03:04:13;;;;;;;11.82;8.48;;;13.80;99.90;;;;;;5028715;28;20045;-37
2023/05/07 03:06:39;;;;;;;12.85;9.57;;;13.70;99.90;;;;;;5021518;28;20107;-37
2023/05/07 03:09:05;;;;;;;14.63;9.80;;;13.70;99.90;;;;;;5026823;28;20454;-37
2023/05/07 03:11:30;;;;;;;15.23;9.95;;;13.70;99.90;;;;;;5018524;28;20073;-37
2023/05/07 03:13:56;;;;;;;12.35;9.15;;;13.60;99.90;;;;;;5022602;28;20137;-37
2023/05/07 03:16:21;;;;;;;11.73;8.38;;;13.60;99.90;;;;;;5017195;28;20065;-37
2023/05/07 03:18:47;;;;;;;11.57;8.13;;;13.60;99.90;;;;;;5020026;28;20281;-37
2023/05/07 03:21:13;;;;;;;12.10;9.05;;;13.50;99.90;;;;;;5025991;28;20492;-37
2023/05/07 03:23:38;;;;;;;15.15;9.70;;;13.50;99.90;;;;;;5030006;28;20183;-37
2023/05/07 03:26:04;;;;;;;15.43;9.68;;;13.40;99.90;;;;;;5034068;28;20049;-37
2023/05/07 03:28:30;;;;;;;17.15;10.38;;;13.40;99.90;;;;;;5034672;28;20127;-44
2023/05/07 03:30:55;;;;;;;11.75;8.57;;;13.40;99.90;;;;;;5032341;28;20060;-37
2023/05/07 03:33:21;;;;;;;14.45;8.90;;;13.30;99.90;;;;;;5031367;28;20050;-37
2023/05/07 03:35:47;;;;;;;12.27;8.68;;;13.30;99.90;;;;;;5035920;28;20057;-37
2023/05/07 03:38:12;;;;;;;12.45;8.90;;;13.20;99.90;;;;;;5036329;28;20059;-37
2023/05/07 03:40:38;;;;;;;13.95;9.85;;;13.20;99.90;;;;;;5038811;28;20053;-37
2023/05/07 03:43:04;;;;;;;15.25;10.18;;;13.20;99.90;;;;;;5037772;28;20084;-37
2023/05/07 03:45:29;;;;;;;14.18;9.93;;;13.20;99.90;;;;;;5036867;28;20139;-37
2023/05/07 03:47:55;;;;;;;14.25;10.38;;;13.10;99.90;;;;;;5035445;28;20056;-37
2023/05/07 03:50:21;;;;;;;12.73;9.35;;;13.20;99.90;;;;;;5038991;28;20415;-38
2023/05/07 03:52:46;;;;;;;13.20;9.50;;;13.10;99.90;;;;;;5021324;28;20050;-37
2023/05/07 03:55:12;;;;;;;13.93;9.70;;;13.10;99.90;;;;;;5013959;28;20057;-37
2023/05/07 03:57:37;;;;;;;13.52;9.05;;;13.10;99.90;;;;;;5012965;28;20058;-37
2023/05/07 04:00:04;;;;;;;16.23;9.43;;;13.00;99.90;;;;;;5017206;28;20057;-37
2023/05/07 04:02:30;;;;;;;11.98;9.30;;;13.10;99.90;;;;;;5030830;28;20041;-38
2023/05/07 04:04:55;;;;;;;14.77;9.75;;;13.00;99.90;;;;;;5042542;28;21264;-40
2023/05/07 04:07:22;;;;;;;16.05;10.80;;;13.10;99.90;;;;;;5039024;28;20037;-37
2023/05/07 04:09:48;;;;;;;15.55;10.52;;;13.00;99.90;;;;;;5028219;28;20142;-38
2023/05/07 04:12:13;;;;;;;15.82;10.98;;;13.00;99.90;;;;;;5033180;28;20192;-37
2023/05/07 04:14:39;;;;;;;17.50;11.15;;;13.00;99.90;;;;;;5029251;28;20065;-37
2023/05/07 04:17:06;;;;;;;16.27;9.85;;;13.00;99.90;;;;;;5023416;28;20053;-37
2023/05/07 04:19:33;;;;;;;15.70;10.75;;;13.00;99.90;;;;;;5030939;28;20049;-38
2023/05/07 04:21:59;;;;;;;17.60;11.73;;;13.00;99.90;;;;;;5032421;28;20057;-38
2023/05/07 04:24:24;;;;;;;16.30;10.60;;;13.00;99.90;;;;;;5016371;28;20514;-37
2023/05/07 04:26:51;;;;;;;13.20;9.48;;;12.90;99.90;;;;;;5016766;28;20512;-37
2023/05/07 04:29:17;;;;;;;15.45;10.32;;;12.90;99.90;;;;;;5037400;28;20064;-38
2023/05/07 04:31:44;;;;;;;15.93;10.52;;;13.00;99.90;;;;;;5024089;28;20083;-38
2023/05/07 04:34:10;;;;;;;19.13;11.57;;;12.90;99.90;;;;;;5026247;28;20463;-37
2023/05/07 04:36:38;;;;;;;15.07;10.38;;;12.90;99.90;;;;;;5024862;28;20493;-37
2023/05/07 04:39:04;;;;;;;15.38;10.52;;;12.90;99.90;;;;;;5020044;28;20491;-45
2023/05/07 04:41:30;;;;;;;17.25;11.45;;;12.90;99.90;;;;;;5019245;28;20471;-37
2023/05/07 04:43:56;;;;;;;17.77;12.10;;;12.80;99.90;;;;;;5034495;28;20079;-37
2023/05/07 04:46:23;;;;;;;17.77;11.55;;;12.80;99.90;;;;;;5030446;28;20499;-38
2023/05/07 04:48:49;;;;;;;16.88;11.40;;;12.80;99.90;;;;;;5029535;28;20747;-37
2023/05/07 04:51:15;;;;;;;15.75;11.27;;;12.80;99.90;;;;;;5020413;28;20053;-37
2023/05/07 04:53:41;;;;;;;17.58;12.00;;;12.80;99.90;;;;;;5022542;28;20049;-38
2023/05/07 04:56:07;;;;;;;18.13;12.02;;;12.80;99.90;;;;;;5034564;28;20426;-37
2023/05/07 04:58:32;;;;;;;16.70;11.27;;;12.80;99.90;;;;;;5017488;28;20049;-37
2023/05/07 05:00:58;;;;;;;17.88;11.82;;;12.70;99.90;;;;;;5022994;28;20119;-37
2023/05/07 05:03:24;;;;;;;16.73;11.18;;;12.70;99.90;;;;;;5037897;28;20053;-37
2023/05/07 05:05:51;;;;;;;15.13;10.60;;;12.70;99.90;;;;;;5024085;28;20325;-37
2023/05/07 05:08:17;;;;;;;18.60;12.50;;;12.70;99.90;;;;;;5032973;28;20161;-37
2023/05/07 05:10:43;;;;;;;18.95;10.85;;;12.80;99.90;;;;;;5015706;28;20132;-37
2023/05/07 05:13:09;;;;;;;20.75;12.65;;;12.80;99.90;;;;;;5029231;28;20103;-37
2023/05/07 05:15:35;;;;;;;18.42;11.55;;;12.80;99.90;;;;;;5032872;28;20057;-37
2023/05/07 05:18:01;;;;;;;24.38;13.20;;;12.80;99.90;;;;;;5036320;28;20091;-37
2023/05/07 05:20:27;;;;;;;18.45;12.65;;;12.80;99.90;;;;;;5023850;28;20045;-37
2023/05/07 05:22:52;;;;;;;17.27;11.90;;;12.80;99.90;;;;;;5025827;28;20099;-38
2023/05/07 05:25:18;;;;;;;18.98;13.75;;;12.80;99.90;;;;;;5028191;28;20120;-37
2023/05/07 05:27:43;;;;;;;21.10;13.52;;;12.80;99.90;;;;;;5015958;28;20053;-37
2023/05/07 05:30:10;;;;;;;18.02;12.52;;;12.80;99.90;;;;;;5033569;28;20481;-38
2023/05/07 05:32:35;;;;;;;20.55;13.35;;;12.80;99.90;;;;;;5022477;28;20050;-38
2023/05/07 05:35:01;;;;;;;18.60;12.32;;;12.80;99.90;;;;;;5029782;28;20063;-37
2023/05/07 05:37:27;;;;;;;20.33;14.00;;;12.90;99.90;;;;;;5033067;28;20049;-37
2023/05/07 05:39:54;;;;;;;18.35;11.98;;;12.90;99.90;;;;;;5039440;28;20041;-37
2023/05/07 05:42:20;;;;;;;24.73;14.70;;;12.90;99.90;;;;;;5024347;28;20046;-38
2023/05/07 05:44:46;;;;;;;21.33;13.80;;;12.90;99.90;;;;;;5034576;28;20128;-37
2023/05/07 05:47:11;;;;;;;21.08;14.30;;;12.90;99.90;;;;;;5034991;28;20508;-36
2023/05/07 05:49:37;;;;;;;20.00;13.40;;;12.90;99.90;;;;;;5022022;28;20049;-36
2023/05/07 05:52:03;;;;;;;17.98;11.32;;;13.00;99.90;;;;;;5018886;28;20072;-36
2023/05/07 05:54:28;;;;;;;19.38;12.82;;;13.00;99.90;;;;;;5015548;28;20515;-36
2023/05/07 05:56:54;;;;;;;17.48;11.88;;;13.00;99.90;;;;;;5014712;28;20054;-36
2023/05/07 05:59:19;;;;;;;22.02;14.15;;;13.00;99.90;;;;;;5014150;28;20076;-37
2023/05/07 06:01:45;;;;;;;21.63;14.70;;;13.00;99.90;;;;;;5019264;28;20132;-36
2023/05/07 06:04:11;;;;;;;23.35;13.73;;;13.00;99.90;;;;;;5032565;28;20056;-37
2023/05/07 06:06:36;;;;;;;20.40;13.57;;;13.00;99.90;;;;;;5028570;28;20050;-37
2023/05/07 06:09:02;;;;;;;20.20;13.02;;;13.00;99.90;;;;;;5033938;28;20057;-36
2023/05/07 06:11:28;;;;;;;19.77;13.55;;;12.90;99.90;;;;;;5020440;28;20412;-36
2023/05/07 06:13:54;;;;;;;21.08;13.63;;;12.90;99.90;;;;;;5014392;28;20144;-36
2023/05/07 06:16:19;;;;;;;20.05;12.63;;;12.90;99.90;;;;;;5014705;28;20088;-36
2023/05/07 06:18:46;;;;;;;23.75;13.70;;;12.90;99.90;;;;;;5018987;28;20133;-37
2023/05/07 06:21:13;;;;;;;22.10;14.18;;;12.90;99.90;;;;;;5018523;28;20046;-37
2023/05/07 06:23:40;;;;;;;20.08;12.85;;;12.90;99.90;;;;;;5034428;28;20060;-37
2023/05/07 06:26:06;;;;;;;23.55;13.73;;;12.90;99.90;;;;;;5021751;28;20053;-37
2023/05/07 06:28:35;;;;;;;20.38;13.25;;;13.00;99.90;;;;;;5023147;28;20048;-38
2023/05/07 06:31:15;;;;;;;22.25;14.60;;;13.00;99.90;;;;;;5029683;28;20049;-37
2023/05/07 06:33:41;;;;;;;19.70;12.10;;;13.00;99.90;;;;;;5017250;28;20133;-36
2023/05/07 06:36:07;;;;;;;20.02;14.27;;;13.10;99.90;;;;;;5013736;28;20132;-37
2023/05/07 06:38:32;;;;;;;22.67;11.75;;;13.20;99.90;;;;;;5027065;28;20084;-37
2023/05/07 06:40:58;;;;;;;21.95;14.00;;;13.30;99.90;;;;;;5016160;28;20060;-37
2023/05/07 06:43:24;;;;;;;18.17;12.98;;;13.30;99.90;;;;;;5023060;28;20128;-37
2023/05/07 06:45:49;;;;;;;22.55;13.85;;;13.40;99.90;;;;;;5010870;28;20049;-37
2023/05/07 06:48:15;;;;;;;20.35;13.57;;;13.50;99.90;;;;;;5025098;28;20372;-37
2023/05/07 06:50:42;;;;;;;19.38;13.68;;;13.60;99.90;;;;;;5017249;28;20059;-37
2023/05/07 06:53:07;;;;;;;20.02;12.57;;;13.70;99.90;;;;;;5026810;28;20053;-37
2023/05/07 06:55:33;;;;;;;22.00;13.65;;;13.80;99.90;;;;;;5020725;28;20056;-37
2023/05/07 06:58:00;;;;;;;18.40;12.30;;;14.00;99.90;;;;;;5024881;28;20514;-36
2023/05/07 07:00:27;;;;;;;19.45;12.50;;;14.10;99.90;;;;;;5025351;28;20064;-37
2023/05/07 07:02:54;;;;;;;17.75;12.18;;;14.20;99.90;;;;;;5032548;28;20049;-37
2023/05/07 07:05:20;;;;;;;22.05;14.20;;;14.40;99.90;;;;;;5033305;28;20056;-37
2023/05/07 07:07:52;;;;;;;19.63;13.20;;;14.50;99.90;;;;;;5035887;28;20407;-37
2023/05/07 07:10:19;;;;;;;19.75;13.05;;;14.60;99.90;;;;;;5036289;28;20048;-37
2023/05/07 07:12:45;;;;;;;17.20;11.27;;;14.70;99.90;;;;;;5024909;28;20101;-37
2023/05/07 07:15:11;;;;;;;17.75;12.27;;;14.70;99.90;;;;;;5018477;28;20053;-37
2023/05/07 07:17:36;;;;;;;17.85;11.88;;;14.80;99.90;;;;;;5035725;28;20052;-37
2023/05/07 07:20:02;;;;;;;17.30;12.20;;;14.80;99.90;;;;;;5034554;28;20057;-37
2023/05/07 07:22:28;;;;;;;17.20;12.50;;;14.90;99.90;;;;;;5023253;28;20057;-37
2023/05/07 07:24:54;;;;;;;21.38;12.50;;;15.00;99.90;;;;;;5036553;28;20079;-37
2023/05/07 07:27:20;;;;;;;21.25;12.85;;;15.00;99.90;;;;;;5009610;28;20061;-43
2023/05/07 07:29:45;;;;;;;21.80;14.55;;;15.10;99.90;;;;;;5047694;28;20475;-37
2023/05/07 07:32:11;;;;;;;18.65;12.35;;;15.10;99.90;;;;;;5029475;28;20993;-37
2023/05/07 07:34:37;;;;;;;17.88;12.20;;;15.20;99.90;;;;;;5028847;28;20049;-38
2023/05/07 07:37:05;;;;;;;16.38;10.98;;;15.20;99.90;;;;;;5037372;28;20044;-37
2023/05/07 07:39:34;;;;;;;17.65;12.05;;;15.20;99.90;;;;;;5035894;28;20048;-37
2023/05/07 07:42:00;;;;;;;19.90;12.43;;;15.20;99.90;;;;;;5037975;28;20562;-37
2023/05/07 07:44:25;;;;;;;22.77;12.85;;;15.30;99.90;;;;;;5024707;28;20102;-37
2023/05/07 07:46:51;;;;;;;17.65;12.85;;;15.30;99.90;;;;;;5024915;28;20140;-36
2023/05/07 07:49:17;;;;;;;16.48;11.55;;;15.30;99.90;;;;;;5010737;28;20085;-37
2023/05/07 07:51:43;;;;;;;16.92;11.98;;;15.40;99.90;;;;;;5010284;28;21515;-37
2023/05/07 07:54:08;;;;;;;16.65;12.18;;;15.50;99.90;;;;;;5020062;28;20175;-37
2023/05/07 07:56:34;;;;;;;17.05;12.00;;;15.60;99.90;;;;;;5017443;28;20475;-40
2023/05/07 07:59:00;;;;;;;17.05;11.70;;;15.70;99.90;;;;;;5031689;28;20875;-37
2023/05/07 08:01:26;;;;;;;15.82;11.05;;;15.70;99.90;;;;;;5031043;28;20048;-48
2023/05/07 08:03:52;;;;;;;17.27;13.00;;;15.80;99.90;;;;;;5021007;28;20053;-38
2023/05/07 08:06:17;;;;;;;15.48;11.38;;;15.70;99.90;;;;;;5023052;28;20072;-37
2023/05/07 08:08:43;;;;;;;18.30;12.98;;;15.80;99.90;;;;;;5009216;28;20054;-37
2023/05/07 08:11:09;;;;;;;15.07;11.23;;;15.90;99.90;;;;;;5030350;28;20369;-37
2023/05/07 08:13:36;;;;;;;16.15;10.45;;;15.90;99.90;;;;;;5031078;28;20054;-37
2023/05/07 08:16:02;;;;;;;18.20;12.32;;;16.00;99.90;;;;;;5019060;28;20135;-36
2023/05/07 08:18:28;;;;;;;16.52;12.05;;;16.10;99.90;;;;;;5022068;28;20061;-37
2023/05/07 08:20:54;;;;;;;15.20;11.07;;;16.30;99.90;;;;;;5022597;28;20060;-37
2023/05/07 08:23:21;;;;;;;18.00;13.13;;;16.40;99.90;;;;;;5027536;28;20879;-37
2023/05/07 08:25:47;;;;;;;17.67;12.48;;;16.60;99.90;;;;;;5026188;28;20487;-37
2023/05/07 08:28:12;;;;;;;18.00;11.68;;;16.80;99.90;;;;;;5035124;28;20049;-38
2023/05/07 08:30:38;;;;;;;20.52;13.77;;;17.00;99.90;;;;;;5025375;28;20110;-37
2023/05/07 08:33:03;;;;;;;16.42;12.60;;;17.10;99.90;;;;;;5022073;28;20187;-37
2023/05/07 08:35:29;;;;;;;17.65;12.48;;;17.20;99.90;;;;;;5010174;28;20056;-37
2023/05/07 08:37:55;;;;;;;17.67;12.05;;;17.20;99.90;;;;;;5014745;28;20056;-37
2023/05/07 08:40:26;;;;;;;19.40;13.23;;;17.30;99.90;;;;;;5006163;28;20056;-37
2023/05/07 08:42:53;;;;;;;18.55;13.10;;;17.30;99.90;;;;;;5018756;28;20048;-38
2023/05/07 08:45:20;;;;;;;16.52;11.95;;;17.30;99.90;;;;;;5024152;28;20238;-38
2023/05/07 08:47:55;;;;;;;18.13;12.75;;;17.40;99.90;;;;;;5023798;28;20132;-37
2023/05/07 08:50:21;;;;;;;16.23;11.73;;;17.50;99.90;;;;;;5026149;28;20088;-37
2023/05/07 08:52:47;;;;;;;18.33;11.93;;;17.60;99.90;;;;;;5013628;28;20477;-37
2023/05/07 08:55:13;;;;;;;16.45;11.90;;;17.90;99.90;;;;;;5030089;28;20045;-37
2023/05/07 08:57:39;;;;;;;17.95;13.15;;;18.00;99.90;;;;;;5018484;28;20068;-37
2023/05/07 09:00:07;;;;;;;17.10;11.93;;;18.10;99.90;;;;;;5026822;28;20053;-38
2023/05/07 09:02:33;;;;;;;17.17;12.98;;;18.10;99.90;;;;;;5022687;28;20053;-37
2023/05/07 09:04:58;;;;;;;16.23;12.05;;;18.20;99.90;;;;;;5028356;28;22022;-37
2023/05/07 09:07:26;;;;;;;19.17;13.70;;;18.30;99.90;;;;;;5014078;28;20050;-38
2023/05/07 09:09:52;;;;;;;16.23;11.05;;;18.40;99.90;;;;;;5027453;28;20487;-38
2023/05/07 09:12:18;;;;;;;18.45;12.48;;;18.40;99.90;;;;;;5022777;28;20049;-38
2023/05/07 09:14:45;;;;;;;14.52;11.25;;;18.60;99.90;;;;;;5032723;28;20126;-37
2023/05/07 09:17:11;;;;;;;17.02;12.45;;;18.50;99.90;;;;;;5028432;28;20053;-37
2023/05/07 09:19:37;;;;;;;15.50;11.82;;;18.50;99.90;;;;;;5014168;28;20432;-38
2023/05/07 09:22:04;;;;;;;18.38;12.32;;;18.50;99.90;;;;;;5018010;28;20055;-38
2023/05/07 09:24:34;;;;;;;19.33;12.93;;;18.40;99.90;;;;;;5018086;28;20307;-39
2023/05/07 09:27:01;;;;;;;19.20;13.52;;;18.40;99.90;;;;;;5011806;28;20049;-38
2023/05/07 09:29:28;;;;;;;20.98;12.35;;;18.40;99.90;;;;;;5026848;28;20041;-39
2023/05/07 09:31:54;;;;;;;51.83;18.85;;;18.30;99.90;;;;;;5023503;28;20052;-39
2023/05/07 09:34:20;;;;;;;54.15;15.43;;;18.40;99.90;;;;;;5022051;28;20049;-38
2023/05/07 09:36:46;;;;;;;18.83;13.35;;;18.60;99.90;;;;;;5012658;28;20079;-38
2023/05/07 09:39:13;;;;;;;18.27;13.07;;;18.70;99.90;;;;;;5031199;28;20045;-37
2023/05/07 09:41:46;;;;;;;18.42;12.05;;;18.80;99.90;;;;;;5025284;28;20057;-38
2023/05/07 09:44:14;;;;;;;19.55;12.55;;;18.90;99.90;;;;;;5026139;28;20770;-38
2023/05/07 09:46:42;;;;;;;17.08;12.93;;;19.00;99.90;;;;;;5028920;28;20129;-37
2023/05/07 09:49:13;;;;;;;20.70;13.35;;;19.20;99.90;;;;;;5014370;28;20642;-39
2023/05/07 09:51:50;;;;;;;17.60;12.50;;;19.30;99.90;;;;;;5019160;28;20057;-38
2023/05/07 09:54:17;;;;;;;21.13;12.77;;;19.60;99.90;;;;;;5031100;28;20051;-37
2023/05/07 09:56:47;;;;;;;20.55;13.95;;;19.80;99.90;;;;;;5024341;28;20057;-38
2023/05/07 09:59:15;;;;;;;15.85;12.05;;;20.00;99.90;;;;;;5020426;28;20079;-39
2023/05/07 10:01:42;;;;;;;17.63;12.05;;;20.20;99.90;;;;;;5018947;28;20045;-41
2023/05/07 10:04:09;;;;;;;16.27;11.90;;;20.40;99.90;;;;;;5026419;28;20049;-38
2023/05/07 10:06:37;;;;;;;17.25;12.35;;;20.60;99.90;;;;;;5026744;28;20139;-39
2023/05/07 10:09:05;;;;;;;19.38;12.52;;;20.80;99.90;;;;;;5015018;28;20057;-39
2023/05/07 10:11:35;;;;;;;22.83;12.50;;;20.70;99.90;;;;;;5030153;28;20301;-39
2023/05/07 10:14:02;;;;;;;15.38;11.82;;;20.80;99.90;;;;;;5008081;28;20115;-38
2023/05/07 10:16:32;;;;;;;16.55;12.45;;;20.80;99.90;;;;;;5020898;28;20049;-38
2023/05/07 10:18:58;;;;;;;16.25;12.43;;;20.90;99.90;;;;;;5014404;28;21283;-41
2023/05/07 10:21:26;;;;;;;36.10;14.38;;;21.00;99.90;;;;;;5011290;28;20140;-39
2023/05/07 10:24:03;;;;;;;14.35;11.40;;;21.10;99.90;;;;;;5023774;28;20064;-38
2023/05/07 10:26:31;;;;;;;14.88;12.05;;;21.20;99.90;;;;;;5024614;28;20561;-38
2023/05/07 10:29:03;;;;;;;15.52;12.45;;;21.40;99.90;;;;;;5033031;28;20056;-38
2023/05/07 10:31:55;;;;;;;16.17;12.35;;;21.50;99.90;;;;;;5017435;28;20065;-38
2023/05/07 10:34:34;;;;;;;17.23;12.93;;;21.40;99.90;;;;;;5013373;28;20922;-37
2023/05/07 10:37:01;;;;;;;21.10;11.98;;;21.20;99.90;;;;;;5005324;28;20144;-39
2023/05/07 10:39:27;;;;;;;18.73;12.73;;;21.20;99.90;;;;;;5032505;28;20449;-38
2023/05/07 10:41:53;;;;;;;15.45;12.50;;;21.20;99.90;;;;;;5031421;28;20064;-39
2023/05/07 10:44:26;;;;;;;18.95;12.07;;;21.20;99.90;;;;;;5022846;28;20103;-38
2023/05/07 10:47:18;;;;;;;15.60;12.07;;;21.20;99.90;;;;;;5022040;28;20057;-37
2023/05/07 10:49:44;;;;;;;16.83;12.43;;;21.10;99.90;;;;;;5015582;28;20067;-38
2023/05/07 10:52:24;;;;;;;15.95;12.15;;;21.10;99.90;;;;;;5017848;28;20508;-39
2023/05/07 10:55:18;;;;;;;15.95;11.90;;;21.10;99.90;;;;;;5017276;28;20128;-39
2023/05/07 10:57:44;;;;;;;17.05;12.75;;;21.30;99.90;;;;;;5036570;28;20045;-40
2023/05/07 11:00:25;;;;;;;16.23;12.15;;;21.50;99.90;;;;;;5027768;28;20052;-39
2023/05/07 11:03:00;;;;;;;15.93;11.45;;;21.70;99.90;;;;;;5031771;28;20416;-39
2023/05/07 11:05:30;;;;;;;18.05;13.57;;;21.80;99.90;;;;;;5023068;28;20557;-38
2023/05/07 11:07:57;;;;;;;16.35;13.35;;;22.00;99.90;;;;;;5020908;28;20407;-39
2023/05/07 11:10:22;;;;;;;20.38;13.32;;;22.00;99.90;;;;;;5024303;28;20136;-38
2023/05/07 11:12:50;;;;;;;16.23;11.93;;;22.00;99.90;;;;;;5031602;28;20550;-38
2023/05/07 11:15:37;;;;;;;17.33;10.95;;;22.00;99.90;;;;;;5027706;28;20526;-37
2023/05/07 11:18:06;;;;;;;20.02;10.50;;;22.00;99.90;;;;;;5018827;28;20392;-36
2023/05/07 11:20:53;;;;;;;15.65;10.25;;;22.10;99.90;;;;;;5024766;28;20475;-36
2023/05/07 11:23:34;;;;;;;15.13;10.15;;;22.10;99.90;;;;;;5016706;28;20148;-36
2023/05/07 11:26:02;;;;;;;14.32;9.68;;;22.20;99.90;;;;;;5026501;28;20057;-36
2023/05/07 11:28:29;;;;;;;15.00;10.02;;;22.30;99.90;;;;;;5021986;28;20054;-37
2023/05/07 11:30:56;;;;;;;14.27;9.70;;;22.30;99.90;;;;;;5016520;28;20111;-36
2023/05/07 11:33:22;;;;;;;14.98;10.60;;;22.50;99.90;;;;;;5012184;28;20412;-37
2023/05/07 11:35:48;;;;;;;14.30;9.68;;;22.60;99.90;;;;;;5011218;28;20053;-36
2023/05/07 11:38:14;;;;;;;14.85;11.23;;;22.70;99.90;;;;;;5008013;28;20057;-36
2023/05/07 11:40:53;;;;;;;15.48;10.93;;;22.80;99.90;;;;;;5021664;28;20412;-36
2023/05/07 11:43:19;;;;;;;13.95;10.00;;;22.90;99.90;;;;;;5030767;28;20511;-37
2023/05/07 11:45:46;;;;;;;12.40;9.32;;;23.00;99.90;;;;;;5017794;28;20057;-36
2023/05/07 11:48:16;;;;;;;14.07;10.18;;;23.00;99.90;;;;;;5010974;28;20061;-36
2023/05/07 11:50:51;;;;;;;13.30;9.68;;;23.00;99.90;;;;;;5017156;28;20049;-36
2023/05/07 11:53:17;;;;;;;14.38;10.93;;;22.90;99.90;;;;;;5017992;28;29960;-38
2023/05/07 11:55:43;;;;;;;13.20;9.40;;;22.80;99.90;;;;;;5025103;28;20056;-36
2023/05/07 11:58:12;;;;;;;13.27;9.43;;;22.70;99.90;;;;;;5030747;28;20507;-36
2023/05/07 12:00:38;;;;;;;14.57;9.55;;;22.60;99.90;;;;;;5033063;28;20056;-36
2023/05/07 12:03:04;;;;;;;12.40;8.32;;;22.60;99.90;;;;;;5014471;28;20494;-37
2023/05/07 12:05:30;;;;;;;13.07;9.05;;;22.70;99.90;;;;;;5025536;28;20061;-38
2023/05/07 12:07:59;;;;;;;12.93;9.02;;;22.60;99.90;;;;;;5015867;28;20069;-37
2023/05/07 12:10:25;;;;;;;16.15;9.98;;;22.70;99.90;;;;;;5031531;28;20479;-37
2023/05/07 12:12:51;;;;;;;13.15;9.63;;;22.80;99.90;;;;;;5034096;28;20518;-37
2023/05/07 12:15:17;;;;;;;14.45;9.70;;;22.90;99.90;;;;;;5023290;28;20167;-37
2023/05/07 12:17:43;;;;;;;14.50;10.65;;;23.00;99.90;;;;;;5027603;28;20041;-37
2023/05/07 12:20:10;;;;;;;14.23;10.30;;;22.90;99.90;;;;;;5021899;28;20160;-36
2023/05/07 12:22:36;;;;;;;14.02;10.13;;;22.70;99.90;;;;;;5031952;28;20636;-37
2023/05/07 12:25:02;;;;;;;14.55;9.90;;;22.60;99.90;;;;;;5027360;28;20463;-37
2023/05/07 12:27:28;;;;;;;13.15;8.73;;;22.40;99.90;;;;;;5040279;28;20198;-37
2023/05/07 12:29:54;;;;;;;14.77;9.70;;;22.30;99.90;;;;;;5024378;28;20049;-37